sensor_id;sensor_type;location;lat;lon;timestamp;pressure;altitude;pressure_sealevel;temperature;humidity
21449;BME280;10885;52.830;13.788;2023-03-07T00:01:52;99645.78;;;-2.79;91.82
21449;BME280;10885;52.830;13.788;2023-03-07T00:07:13;99649.03;;;-2.80;91.93
21449;BME280;10885;52.830;13.788;2023-03-07T00:12:34;99644.75;;;-2.81;91.95
21449;BME280;10885;52.830;13.788;2023-03-07T00:17:56;99634.28;;;-2.86;91.76
21449;BME280;10885;52.830;13.788;2023-03-07T00:23:17;99633.25;;;-2.88;91.95
21449;BME280;10885;52.830;13.788;2023-03-07T00:28:38;99617.34;;;-2.88;91.83
21449;BME280;10885;52.830;13.788;2023-03-07T00:34:00;99625.59;;;-2.89;91.93
21449;BME280;10885;52.830;13.788;2023-03-07T00:39:21;99614.25;;;-2.94;92.13
21449;BME280;10885;52.830;13.788;2023-03-07T00:44:42;99610.41;;;-3.00;92.20
21449;BME280;10885;52.830;13.788;2023-03-07T00:50:03;99606.84;;;-2.93;92.56
21449;BME280;10885;52.830;13.788;2023-03-07T00:55:24;99583.53;;;-2.83;92.95
21449;BME280;10885;52.830;13.788;2023-03-07T01:00:45;99568.03;;;-2.79;93.50
21449;BME280;10885;52.830;13.788;2023-03-07T01:06:11;99559.47;;;-2.81;93.39
21449;BME280;10885;52.830;13.788;2023-03-07T01:11:33;99547.19;;;-2.69;93.49
21449;BME280;10885;52.830;13.788;2023-03-07T01:16:55;99537.94;;;-2.51;93.79
21449;BME280;10885;52.830;13.788;2023-03-07T01:22:16;99519.19;;;-2.46;93.92
21449;BME280;10885;52.830;13.788;2023-03-07T01:27:38;99506.31;;;-2.41;94.21
21449;BME280;10885;52.830;13.788;2023-03-07T01:33:01;99494.25;;;-2.45;94.56
21449;BME280;10885;52.830;13.788;2023-03-07T01:38:22;99483.28;;;-2.36;95.03
21449;BME280;10885;52.830;13.788;2023-03-07T01:43:44;99473.63;;;-2.32;94.83
21449;BME280;10885;52.830;13.788;2023-03-07T01:54:59;99447.97;;;-2.19;94.66
21449;BME280;10885;52.830;13.788;2023-03-07T02:00:21;99433.59;;;-2.11;94.52
21449;BME280;10885;52.830;13.788;2023-03-07T02:05:52;99423.63;;;-2.01;94.21
21449;BME280;10885;52.830;13.788;2023-03-07T02:11:15;99417.09;;;-1.99;94.48
21449;BME280;10885;52.830;13.788;2023-03-07T02:16:37;99406.22;;;-1.89;94.18
21449;BME280;10885;52.830;13.788;2023-03-07T02:22:10;99382.75;;;-1.90;93.97
21449;BME280;10885;52.830;13.788;2023-03-07T02:27:34;99359.81;;;-1.84;94.53
21449;BME280;10885;52.830;13.788;2023-03-07T02:32:57;99358.31;;;-1.82;94.16
21449;BME280;10885;52.830;13.788;2023-03-07T02:38:20;99325.78;;;-1.81;94.63
21449;BME280;10885;52.830;13.788;2023-03-07T02:43:41;99305.34;;;-1.75;94.97
21449;BME280;10885;52.830;13.788;2023-03-07T02:49:03;99321.28;;;-1.74;95.29
21449;BME280;10885;52.830;13.788;2023-03-07T02:54:26;99296.28;;;-1.73;95.13
21449;BME280;10885;52.830;13.788;2023-03-07T02:59:47;99296.41;;;-1.71;96.13
21449;BME280;10885;52.830;13.788;2023-03-07T03:05:08;99286.75;;;-1.67;95.99
21449;BME280;10885;52.830;13.788;2023-03-07T03:10:29;99270.81;;;-1.57;95.97
21449;BME280;10885;52.830;13.788;2023-03-07T03:15:55;99258.78;;;-1.51;96.55
21449;BME280;10885;52.830;13.788;2023-03-07T03:21:17;99244.84;;;-1.47;96.57
21449;BME280;10885;52.830;13.788;2023-03-07T03:26:38;99223.94;;;-1.36;96.30
21449;BME280;10885;52.830;13.788;2023-03-07T03:32:00;99215.53;;;-1.26;96.36
21449;BME280;10885;52.830;13.788;2023-03-07T03:37:22;99199.44;;;-1.18;96.34
21449;BME280;10885;52.830;13.788;2023-03-07T03:42:44;99185.59;;;-1.13;95.91
21449;BME280;10885;52.830;13.788;2023-03-07T03:48:08;99174.41;;;-1.06;96.35
21449;BME280;10885;52.830;13.788;2023-03-07T03:53:30;99171.63;;;-0.99;96.20
21449;BME280;10885;52.830;13.788;2023-03-07T03:58:54;99148.22;;;-0.98;96.00
21449;BME280;10885;52.830;13.788;2023-03-07T04:04:15;99136.50;;;-0.87;95.30
21449;BME280;10885;52.830;13.788;2023-03-07T04:09:36;99132.81;;;-0.81;95.23
21449;BME280;10885;52.830;13.788;2023-03-07T04:15:24;99108.66;;;-0.78;95.50
21449;BME280;10885;52.830;13.788;2023-03-07T04:20:46;99096.81;;;-0.69;94.77
21449;BME280;10885;52.830;13.788;2023-03-07T04:26:08;99083.19;;;-0.61;94.70
21449;BME280;10885;52.830;13.788;2023-03-07T04:31:31;99070.72;;;-0.59;94.36
21449;BME280;10885;52.830;13.788;2023-03-07T04:36:54;99059.47;;;-0.53;93.93
21449;BME280;10885;52.830;13.788;2023-03-07T04:42:15;99053.25;;;-0.46;93.86
21449;BME280;10885;52.830;13.788;2023-03-07T04:47:36;99035.34;;;-0.39;93.62
21449;BME280;10885;52.830;13.788;2023-03-07T04:52:57;99024.84;;;-0.33;93.53
21449;BME280;10885;52.830;13.788;2023-03-07T04:58:19;99017.63;;;-0.29;93.45
21449;BME280;10885;52.830;13.788;2023-03-07T05:03:40;98990.28;;;-0.24;93.85
21449;BME280;10885;52.830;13.788;2023-03-07T05:09:02;98981.09;;;-0.24;94.21
21449;BME280;10885;52.830;13.788;2023-03-07T05:14:24;98973.09;;;-0.18;94.60
21449;BME280;10885;52.830;13.788;2023-03-07T05:19:45;98970.56;;;-0.18;95.68
21449;BME280;10885;52.830;13.788;2023-03-07T05:25:07;98954.06;;;-0.14;95.86
21449;BME280;10885;52.830;13.788;2023-03-07T05:30:28;98944.19;;;-0.23;96.48
21449;BME280;10885;52.830;13.788;2023-03-07T05:35:49;98930.38;;;-0.28;97.11
21449;BME280;10885;52.830;13.788;2023-03-07T05:41:11;98927.13;;;-0.27;97.65
21449;BME280;10885;52.830;13.788;2023-03-07T05:46:32;98921.53;;;-0.23;97.90
21449;BME280;10885;52.830;13.788;2023-03-07T05:51:55;98907.41;;;-0.21;97.97
21449;BME280;10885;52.830;13.788;2023-03-07T05:57:16;98905.56;;;-0.24;97.79
21449;BME280;10885;52.830;13.788;2023-03-07T06:02:37;98912.47;;;-0.09;98.45
21449;BME280;10885;52.830;13.788;2023-03-07T06:07:58;98901.72;;;-0.07;97.93
21449;BME280;10885;52.830;13.788;2023-03-07T06:13:20;98923.19;;;-0.12;97.86
21449;BME280;10885;52.830;13.788;2023-03-07T06:18:41;98905.34;;;-0.03;97.78
21449;BME280;10885;52.830;13.788;2023-03-07T06:24:03;98890.66;;;0.03;98.01
21449;BME280;10885;52.830;13.788;2023-03-07T06:29:24;98903.25;;;0.15;97.97
21449;BME280;10885;52.830;13.788;2023-03-07T06:34:45;98908.28;;;0.27;97.47
21449;BME280;10885;52.830;13.788;2023-03-07T06:40:07;98900.19;;;0.19;96.67
21449;BME280;10885;52.830;13.788;2023-03-07T06:45:29;98923.19;;;0.24;96.53
21449;BME280;10885;52.830;13.788;2023-03-07T06:50:51;98910.03;;;0.28;96.92
21449;BME280;10885;52.830;13.788;2023-03-07T06:56:12;98905.66;;;0.25;96.21
21449;BME280;10885;52.830;13.788;2023-03-07T07:01:34;98906.44;;;0.24;96.51
21449;BME280;10885;52.830;13.788;2023-03-07T07:06:56;98902.03;;;0.33;96.30
21449;BME280;10885;52.830;13.788;2023-03-07T07:12:18;98903.69;;;0.45;96.13
21449;BME280;10885;52.830;13.788;2023-03-07T07:17:40;98875.69;;;0.53;96.26
21449;BME280;10885;52.830;13.788;2023-03-07T07:23:01;98901.22;;;0.70;95.75
21449;BME280;10885;52.830;13.788;2023-03-07T07:28:22;98901.50;;;0.86;95.70
21449;BME280;10885;52.830;13.788;2023-03-07T07:33:44;98896.31;;;0.96;94.71
21449;BME280;10885;52.830;13.788;2023-03-07T07:39:09;98884.38;;;0.94;94.09
21449;BME280;10885;52.830;13.788;2023-03-07T07:44:35;98877.78;;;0.96;93.64
21449;BME280;10885;52.830;13.788;2023-03-07T07:50:02;98878.28;;;1.04;93.62
21449;BME280;10885;52.830;13.788;2023-03-07T07:55:26;98884.03;;;1.14;93.66
21449;BME280;10885;52.830;13.788;2023-03-07T08:00:48;98871.31;;;1.13;92.95
21449;BME280;10885;52.830;13.788;2023-03-07T08:06:09;98888.63;;;1.20;92.73
21449;BME280;10885;52.830;13.788;2023-03-07T08:11:30;98879.13;;;1.29;92.23
21449;BME280;10885;52.830;13.788;2023-03-07T08:16:51;98888.97;;;1.38;92.43
21449;BME280;10885;52.830;13.788;2023-03-07T08:22:12;98870.84;;;1.44;92.01
21449;BME280;10885;52.830;13.788;2023-03-07T08:27:33;98865.03;;;1.58;91.72
21449;BME280;10885;52.830;13.788;2023-03-07T08:32:55;98860.31;;;1.89;91.23
21449;BME280;10885;52.830;13.788;2023-03-07T08:38:16;98861.19;;;2.03;90.18
21449;BME280;10885;52.830;13.788;2023-03-07T08:43:37;98872.75;;;1.99;89.45
21449;BME280;10885;52.830;13.788;2023-03-07T08:48:58;98877.50;;;2.08;88.77
21449;BME280;10885;52.830;13.788;2023-03-07T08:54:19;98872.72;;;2.26;88.28
21449;BME280;10885;52.830;13.788;2023-03-07T08:59:40;98864.53;;;3.58;86.16
21449;BME280;10885;52.830;13.788;2023-03-07T09:05:01;98869.59;;;7.10;66.17
21449;BME280;10885;52.830;13.788;2023-03-07T09:10:22;98890.25;;;5.21;72.50
21449;BME280;10885;52.830;13.788;2023-03-07T09:15:44;98872.88;;;5.28;73.72
21449;BME280;10885;52.830;13.788;2023-03-07T09:21:05;98873.97;;;5.17;72.94
21449;BME280;10885;52.830;13.788;2023-03-07T09:26:26;98867.78;;;5.79;73.69
21449;BME280;10885;52.830;13.788;2023-03-07T09:31:46;98877.81;;;5.94;68.83
21449;BME280;10885;52.830;13.788;2023-03-07T09:37:09;98853.06;;;5.55;72.02
21449;BME280;10885;52.830;13.788;2023-03-07T09:48:32;98838.25;;;5.30;73.40
21449;BME280;10885;52.830;13.788;2023-03-07T09:53:58;98830.44;;;7.08;65.00
21449;BME280;10885;52.830;13.788;2023-03-07T09:59:35;98825.34;;;6.14;67.86
21449;BME280;10885;52.830;13.788;2023-03-07T10:22:04;98865.41;;;5.66;66.84
21449;BME280;10885;52.830;13.788;2023-03-07T10:27:30;98855.72;;;5.24;68.02
21449;BME280;10885;52.830;13.788;2023-03-07T10:32:56;98850.75;;;5.09;68.88
21449;BME280;10885;52.830;13.788;2023-03-07T10:43:44;98868.50;;;4.76;68.16
21449;BME280;10885;52.830;13.788;2023-03-07T10:49:10;98847.00;;;5.03;67.63
21449;BME280;10885;52.830;13.788;2023-03-07T10:54:36;98848.56;;;5.17;65.31
21449;BME280;10885;52.830;13.788;2023-03-07T11:00:12;98844.06;;;5.80;63.93
21449;BME280;10885;52.830;13.788;2023-03-07T11:05:35;98846.63;;;6.71;59.45
21449;BME280;10885;52.830;13.788;2023-03-07T11:11:02;98821.31;;;6.94;58.00
21449;BME280;10885;52.830;13.788;2023-03-07T11:16:24;98815.38;;;6.18;58.06
21449;BME280;10885;52.830;13.788;2023-03-07T11:21:52;98816.56;;;5.89;60.98
21449;BME280;10885;52.830;13.788;2023-03-07T11:27:23;98815.44;;;5.84;59.91
21449;BME280;10885;52.830;13.788;2023-03-07T11:32:52;98805.19;;;5.65;61.18
21449;BME280;10885;52.830;13.788;2023-03-07T11:38:25;98816.00;;;5.61;61.12
21449;BME280;10885;52.830;13.788;2023-03-07T11:44:11;98795.81;;;5.46;62.62
21449;BME280;10885;52.830;13.788;2023-03-07T12:06:40;98779.84;;;5.48;63.69
21449;BME280;10885;52.830;13.788;2023-03-07T12:23:19;98774.28;;;4.70;64.94
21449;BME280;10885;52.830;13.788;2023-03-07T12:28:49;98785.06;;;4.66;65.07
21449;BME280;10885;52.830;13.788;2023-03-07T12:34:19;98787.13;;;4.57;65.29
21449;BME280;10885;52.830;13.788;2023-03-07T12:39:54;98789.97;;;4.47;66.76
21449;BME280;10885;52.830;13.788;2023-03-07T12:45:20;98792.41;;;4.45;67.65
21449;BME280;10885;52.830;13.788;2023-03-07T12:50:53;98785.13;;;4.35;68.66
21449;BME280;10885;52.830;13.788;2023-03-07T12:56:25;98781.94;;;4.23;70.30
21449;BME280;10885;52.830;13.788;2023-03-07T13:12:41;98793.66;;;4.21;71.83
21449;BME280;10885;52.830;13.788;2023-03-07T13:18:03;98788.53;;;4.35;71.69
21449;BME280;10885;52.830;13.788;2023-03-07T13:23:26;98796.94;;;4.34;71.46
21449;BME280;10885;52.830;13.788;2023-03-07T13:28:48;98804.47;;;4.33;72.71
21449;BME280;10885;52.830;13.788;2023-03-07T13:34:43;98794.41;;;4.34;72.57
21449;BME280;10885;52.830;13.788;2023-03-07T13:46:03;98777.47;;;4.50;73.03
21449;BME280;10885;52.830;13.788;2023-03-07T13:51:25;98780.25;;;4.23;73.35
21449;BME280;10885;52.830;13.788;2023-03-07T13:56:50;98781.28;;;4.10;73.71
21449;BME280;10885;52.830;13.788;2023-03-07T14:02:17;98784.47;;;3.91;73.72
21449;BME280;10885;52.830;13.788;2023-03-07T14:07:40;98775.56;;;3.83;74.48
21449;BME280;10885;52.830;13.788;2023-03-07T14:18:52;98789.63;;;3.93;72.63
21449;BME280;10885;52.830;13.788;2023-03-07T14:30:21;98799.69;;;3.91;71.85
21449;BME280;10885;52.830;13.788;2023-03-07T14:35:43;98790.06;;;4.01;70.57
21449;BME280;10885;52.830;13.788;2023-03-07T14:46:51;98797.56;;;4.30;69.53
21449;BME280;10885;52.830;13.788;2023-03-07T14:52:16;98806.84;;;4.30;69.52
21449;BME280;10885;52.830;13.788;2023-03-07T14:57:52;98815.03;;;4.09;69.37
21449;BME280;10885;52.830;13.788;2023-03-07T15:03:14;98825.22;;;3.94;70.15
21449;BME280;10885;52.830;13.788;2023-03-07T15:08:35;98828.28;;;3.74;71.05
21449;BME280;10885;52.830;13.788;2023-03-07T15:19:37;98822.91;;;3.53;72.88
21449;BME280;10885;52.830;13.788;2023-03-07T15:24:58;98830.81;;;3.44;72.58
21449;BME280;10885;52.830;13.788;2023-03-07T15:30:24;98830.31;;;3.50;72.21
21449;BME280;10885;52.830;13.788;2023-03-07T15:36:05;98832.84;;;3.50;71.37
21449;BME280;10885;52.830;13.788;2023-03-07T15:41:29;98843.41;;;3.57;71.92
21449;BME280;10885;52.830;13.788;2023-03-07T15:46:55;98850.13;;;3.72;71.80
21449;BME280;10885;52.830;13.788;2023-03-07T15:52:34;98846.97;;;3.76;70.86
21449;BME280;10885;52.830;13.788;2023-03-07T15:57:59;98863.69;;;3.72;70.38
21449;BME280;10885;52.830;13.788;2023-03-07T16:08:48;98866.50;;;3.62;70.51
21449;BME280;10885;52.830;13.788;2023-03-07T16:14:26;98871.19;;;3.56;69.81
21449;BME280;10885;52.830;13.788;2023-03-07T16:19:48;98874.94;;;3.48;68.67
21449;BME280;10885;52.830;13.788;2023-03-07T16:25:09;98883.66;;;3.38;67.22
21449;BME280;10885;52.830;13.788;2023-03-07T16:30:33;98894.13;;;3.29;66.48
21449;BME280;10885;52.830;13.788;2023-03-07T16:35:53;98901.47;;;3.25;67.45
21449;BME280;10885;52.830;13.788;2023-03-07T16:41:21;98899.25;;;3.16;67.21
21449;BME280;10885;52.830;13.788;2023-03-07T16:46:42;98904.28;;;3.01;67.38
21449;BME280;10885;52.830;13.788;2023-03-07T16:52:05;98908.78;;;2.92;67.74
21449;BME280;10885;52.830;13.788;2023-03-07T16:57:26;98928.19;;;2.78;67.43
21449;BME280;10885;52.830;13.788;2023-03-07T17:02:47;98939.31;;;2.67;66.63
21449;BME280;10885;52.830;13.788;2023-03-07T17:08:10;98919.31;;;2.43;66.21
21449;BME280;10885;52.830;13.788;2023-03-07T17:13:31;98935.44;;;2.32;66.93
21449;BME280;10885;52.830;13.788;2023-03-07T17:18:52;98937.38;;;2.23;66.47
21449;BME280;10885;52.830;13.788;2023-03-07T17:24:13;98953.94;;;2.17;70.39
21449;BME280;10885;52.830;13.788;2023-03-07T17:29:40;98952.47;;;2.08;67.98
21449;BME280;10885;52.830;13.788;2023-03-07T17:35:03;98970.16;;;2.08;68.16
21449;BME280;10885;52.830;13.788;2023-03-07T17:40:24;98979.47;;;1.95;68.64
21449;BME280;10885;52.830;13.788;2023-03-07T17:45:45;98980.63;;;1.87;69.01
21449;BME280;10885;52.830;13.788;2023-03-07T17:51:07;98966.25;;;1.61;70.41
21449;BME280;10885;52.830;13.788;2023-03-07T17:56:29;98967.19;;;1.50;71.54
21449;BME280;10885;52.830;13.788;2023-03-07T18:01:50;98975.41;;;1.47;71.90
21449;BME280;10885;52.830;13.788;2023-03-07T18:07:10;98965.69;;;1.40;72.64
21449;BME280;10885;52.830;13.788;2023-03-07T18:12:32;98976.94;;;1.32;73.91
21449;BME280;10885;52.830;13.788;2023-03-07T18:17:53;98992.84;;;1.31;74.39
21449;BME280;10885;52.830;13.788;2023-03-07T18:23:13;98989.44;;;1.30;74.51
21449;BME280;10885;52.830;13.788;2023-03-07T18:28:36;98983.63;;;1.31;74.91
21449;BME280;10885;52.830;13.788;2023-03-07T18:33:57;98986.81;;;1.29;75.41
21449;BME280;10885;52.830;13.788;2023-03-07T18:39:22;98984.97;;;1.26;75.85
21449;BME280;10885;52.830;13.788;2023-03-07T18:44:43;98987.38;;;1.25;76.66
21449;BME280;10885;52.830;13.788;2023-03-07T18:50:04;98994.28;;;1.27;76.85
21449;BME280;10885;52.830;13.788;2023-03-07T18:55:25;98997.13;;;1.32;76.49
21449;BME280;10885;52.830;13.788;2023-03-07T19:00:46;99005.00;;;1.36;76.36
21449;BME280;10885;52.830;13.788;2023-03-07T19:06:08;99010.34;;;1.41;76.26
21449;BME280;10885;52.830;13.788;2023-03-07T19:11:30;99011.25;;;1.42;76.36
21449;BME280;10885;52.830;13.788;2023-03-07T19:16:51;99019.81;;;1.44;76.03
21449;BME280;10885;52.830;13.788;2023-03-07T19:22:11;99013.09;;;1.44;75.81
21449;BME280;10885;52.830;13.788;2023-03-07T19:27:32;99024.41;;;1.49;75.84
21449;BME280;10885;52.830;13.788;2023-03-07T19:32:54;99041.41;;;1.52;75.82
21449;BME280;10885;52.830;13.788;2023-03-07T19:38:15;99038.88;;;1.52;75.72
21449;BME280;10885;52.830;13.788;2023-03-07T19:43:35;99043.81;;;1.50;75.76
21449;BME280;10885;52.830;13.788;2023-03-07T19:48:56;99042.63;;;1.45;75.44
21449;BME280;10885;52.830;13.788;2023-03-07T19:54:17;99038.25;;;1.43;75.88
21449;BME280;10885;52.830;13.788;2023-03-07T19:59:40;99041.63;;;1.43;75.28
21449;BME280;10885;52.830;13.788;2023-03-07T20:05:00;99050.88;;;1.43;74.87
21449;BME280;10885;52.830;13.788;2023-03-07T20:10:21;99052.53;;;1.42;74.83
21449;BME280;10885;52.830;13.788;2023-03-07T20:15:48;99067.78;;;1.44;75.03
21449;BME280;10885;52.830;13.788;2023-03-07T20:21:12;99070.19;;;1.42;74.54
21449;BME280;10885;52.830;13.788;2023-03-07T20:26:35;99065.91;;;1.41;74.70
21449;BME280;10885;52.830;13.788;2023-03-07T20:31:56;99085.22;;;1.41;74.46
21449;BME280;10885;52.830;13.788;2023-03-07T20:37:18;99097.97;;;1.42;75.15
21449;BME280;10885;52.830;13.788;2023-03-07T20:42:39;99088.53;;;1.39;74.70
21449;BME280;10885;52.830;13.788;2023-03-07T20:47:59;99090.84;;;1.36;74.78
21449;BME280;10885;52.830;13.788;2023-03-07T20:53:21;99098.97;;;1.32;74.63
21449;BME280;10885;52.830;13.788;2023-03-07T20:58:42;99103.47;;;1.36;74.63
21449;BME280;10885;52.830;13.788;2023-03-07T21:04:08;99103.03;;;1.30;74.62
21449;BME280;10885;52.830;13.788;2023-03-07T21:09:30;99122.13;;;1.27;74.86
21449;BME280;10885;52.830;13.788;2023-03-07T21:14:51;99130.38;;;1.24;75.28
21449;BME280;10885;52.830;13.788;2023-03-07T21:20:12;99148.59;;;1.20;75.48
21449;BME280;10885;52.830;13.788;2023-03-07T21:25:33;99139.81;;;1.15;75.95
21449;BME280;10885;52.830;13.788;2023-03-07T21:31:01;99165.16;;;1.05;76.45
21449;BME280;10885;52.830;13.788;2023-03-07T21:36:24;99155.31;;;0.96;77.25
21449;BME280;10885;52.830;13.788;2023-03-07T21:41:46;99162.50;;;0.91;77.80
21449;BME280;10885;52.830;13.788;2023-03-07T21:47:07;99175.91;;;0.90;77.92
21449;BME280;10885;52.830;13.788;2023-03-07T21:52:28;99178.56;;;0.92;78.45
21449;BME280;10885;52.830;13.788;2023-03-07T21:57:50;99185.22;;;0.91;78.95
21449;BME280;10885;52.830;13.788;2023-03-07T22:03:11;99195.22;;;0.90;78.63
21449;BME280;10885;52.830;13.788;2023-03-07T22:08:32;99201.03;;;0.89;78.68
21449;BME280;10885;52.830;13.788;2023-03-07T22:13:53;99209.25;;;0.86;78.71
21449;BME280;10885;52.830;13.788;2023-03-07T22:19:15;99210.53;;;0.81;79.45
21449;BME280;10885;52.830;13.788;2023-03-07T22:24:35;99218.53;;;0.75;79.56
21449;BME280;10885;52.830;13.788;2023-03-07T22:29:56;99229.75;;;0.79;79.99
21449;BME280;10885;52.830;13.788;2023-03-07T22:35:17;99232.91;;;0.76;79.87
21449;BME280;10885;52.830;13.788;2023-03-07T22:40:38;99235.00;;;0.70;80.59
21449;BME280;10885;52.830;13.788;2023-03-07T22:45:59;99242.44;;;0.69;80.94
21449;BME280;10885;52.830;13.788;2023-03-07T22:51:21;99238.06;;;0.66;80.90
21449;BME280;10885;52.830;13.788;2023-03-07T22:56:43;99243.50;;;0.61;80.81
21449;BME280;10885;52.830;13.788;2023-03-07T23:02:04;99244.25;;;0.59;80.95
21449;BME280;10885;52.830;13.788;2023-03-07T23:07:24;99257.94;;;0.51;81.07
21449;BME280;10885;52.830;13.788;2023-03-07T23:12:48;99262.22;;;0.52;81.46
21449;BME280;10885;52.830;13.788;2023-03-07T23:18:09;99268.09;;;0.41;81.27
21449;BME280;10885;52.830;13.788;2023-03-07T23:23:30;99270.41;;;0.38;81.58
21449;BME280;10885;52.830;13.788;2023-03-07T23:28:52;99266.28;;;0.28;81.54
21449;BME280;10885;52.830;13.788;2023-03-07T23:34:15;99266.03;;;0.25;82.05
21449;BME280;10885;52.830;13.788;2023-03-07T23:39:37;99278.53;;;0.24;82.02
21449;BME280;10885;52.830;13.788;2023-03-07T23:44:57;99279.44;;;0.14;81.73
21449;BME280;10885;52.830;13.788;2023-03-07T23:50:19;99280.41;;;0.04;82.59
21449;BME280;10885;52.830;13.788;2023-03-07T23:55:40;99295.28;;;0.01;82.91
